Time;durP1;ratioP1;P1;durP2;ratioP2;P2;SDS_P1;SDS_P2;PMS_P1;PMS_P2;Temp;Humidity;BMP_temperature;BMP_pressure;BME280_temperature;BME280_humidity;BME280_pressure;Samples;Min_cycle;Max_cycle;Signal;HPM_P1;HPM_P2
2021/08/13 00:00:24;;;;;;;7.13;3.00;;;18.90;99.90;;;;;;5030802;28;20034;-78
2021/08/13 00:02:50;;;;;;;4.53;2.78;;;18.90;99.90;;;;;;5031400;28;20025;-81
2021/08/13 00:05:16;;;;;;;9.30;3.05;;;18.90;99.90;;;;;;5031075;28;20465;-79
2021/08/13 00:07:41;;;;;;;6.78;2.75;;;18.80;99.90;;;;;;5031072;28;20635;-81
2021/08/13 00:10:07;;;;;;;6.28;3.28;;;18.80;99.90;;;;;;5030664;28;20853;-78
2021/08/13 00:12:33;;;;;;;3.80;2.90;;;18.80;99.90;;;;;;5029547;28;20088;-78
2021/08/13 00:14:59;;;;;;;7.05;3.13;;;18.70;99.90;;;;;;5030167;28;20033;-78
2021/08/13 00:17:26;;;;;;;7.57;3.15;;;18.70;99.90;;;;;;5030804;28;20025;-81
2021/08/13 00:19:53;;;;;;;6.13;3.22;;;18.70;99.90;;;;;;5031218;28;20033;-78
2021/08/13 00:22:19;;;;;;;5.28;2.80;;;18.60;99.90;;;;;;5028289;28;20030;-81
2021/08/13 00:24:45;;;;;;;8.63;3.45;;;18.60;99.90;;;;;;5030257;28;20029;-78
2021/08/13 00:27:11;;;;;;;7.22;2.67;;;18.60;99.90;;;;;;5029545;28;20083;-78
2021/08/13 00:29:37;;;;;;;7.85;2.53;;;18.60;99.90;;;;;;5031220;28;20078;-78
2021/08/13 00:32:03;;;;;;;5.00;2.75;;;18.60;99.90;;;;;;5030533;28;20025;-78
2021/08/13 00:34:28;;;;;;;9.27;2.80;;;18.50;99.90;;;;;;5028779;28;20083;-78
2021/08/13 00:36:54;;;;;;;6.32;2.80;;;18.50;99.90;;;;;;5030459;28;20100;-78
2021/08/13 00:39:19;;;;;;;5.55;2.75;;;18.50;99.90;;;;;;5030710;28;20029;-78
2021/08/13 00:41:45;;;;;;;4.95;2.72;;;18.40;99.90;;;;;;5030744;28;20022;-81
2021/08/13 00:44:11;;;;;;;5.60;2.85;;;18.50;99.90;;;;;;5029082;28;20152;-78
2021/08/13 00:46:36;;;;;;;11.80;3.33;;;18.50;99.90;;;;;;5029517;28;20033;-78
2021/08/13 00:49:02;;;;;;;4.63;2.63;;;18.40;99.90;;;;;;5031132;28;20056;-78
2021/08/13 00:51:28;;;;;;;6.82;2.60;;;18.40;99.90;;;;;;5020976;28;20083;-78
2021/08/13 00:53:54;;;;;;;6.47;3.05;;;18.40;99.90;;;;;;5029410;28;20036;-78
2021/08/13 00:56:20;;;;;;;6.72;2.60;;;18.40;99.90;;;;;;5029362;28;20033;-78
2021/08/13 00:58:47;;;;;;;10.00;3.30;;;18.40;99.90;;;;;;5030618;28;20400;-81
2021/08/13 01:01:13;;;;;;;7.50;2.90;;;18.30;99.90;;;;;;5029202;28;20022;-78
2021/08/13 01:03:40;;;;;;;7.60;2.90;;;18.40;99.90;;;;;;5029430;28;20040;-81
2021/08/13 01:06:09;;;;;;;7.80;3.00;;;18.30;99.90;;;;;;5030566;28;20029;-78
2021/08/13 01:08:34;;;;;;;8.82;3.17;;;18.30;99.90;;;;;;5029653;28;20620;-78
2021/08/13 01:11:13;;;;;;;6.30;3.03;;;18.30;99.90;;;;;;5028799;28;20120;-81
2021/08/13 01:13:54;;;;;;;10.30;3.00;;;18.30;99.90;;;;;;5030415;28;20076;-81
2021/08/13 01:16:20;;;;;;;7.85;2.90;;;18.30;99.90;;;;;;5028933;28;20032;-78
2021/08/13 01:18:55;;;;;;;6.93;3.35;;;18.30;99.90;;;;;;5030394;28;20025;-81
2021/08/13 01:21:44;;;;;;;6.53;3.00;;;18.20;99.90;;;;;;5029054;28;20033;-78
2021/08/13 01:24:16;;;;;;;7.25;3.25;;;18.20;99.90;;;;;;5030144;28;20527;-78
2021/08/13 01:26:55;;;;;;;7.23;2.93;;;18.20;99.90;;;;;;5030222;28;20060;-78
2021/08/13 01:29:39;;;;;;;7.78;2.95;;;18.20;99.90;;;;;;5025363;28;20767;-78
2021/08/13 01:32:22;;;;;;;11.13;2.97;;;18.20;99.90;;;;;;5010355;28;20026;-81
2021/08/13 01:34:54;;;;;;;10.68;3.70;;;18.10;99.90;;;;;;5011277;28;20452;-78
2021/08/13 01:37:21;;;;;;;10.15;3.35;;;18.10;99.90;;;;;;5032466;28;20203;-78
2021/08/13 01:39:48;;;;;;;8.43;3.17;;;18.10;99.90;;;;;;5033405;28;20033;-78
2021/08/13 01:42:14;;;;;;;8.70;2.90;;;18.10;99.90;;;;;;5033816;28;20424;-78
2021/08/13 01:44:42;;;;;;;7.32;3.45;;;18.10;99.90;;;;;;5031898;28;20053;-78
2021/08/13 01:47:08;;;;;;;11.30;3.13;;;18.10;99.90;;;;;;5033486;28;20033;-81
2021/08/13 01:49:35;;;;;;;7.13;3.35;;;18.10;99.90;;;;;;5033484;28;20079;-78
2021/08/13 01:52:03;;;;;;;9.52;3.45;;;18.10;99.90;;;;;;5030724;28;20561;-81
2021/08/13 01:54:30;;;;;;;10.32;2.92;;;18.00;99.90;;;;;;5031889;28;20520;-78
2021/08/13 01:56:56;;;;;;;9.27;3.38;;;18.00;99.90;;;;;;5033881;28;20021;-78
2021/08/13 01:59:22;;;;;;;10.77;3.83;;;18.00;99.90;;;;;;5033385;28;20381;-78
2021/08/13 02:01:51;;;;;;;9.68;3.83;;;18.00;99.90;;;;;;5032054;28;20083;-81
2021/08/13 02:04:20;;;;;;;11.15;3.63;;;18.00;99.90;;;;;;5032120;28;20033;-78
2021/08/13 02:06:48;;;;;;;7.78;3.88;;;18.00;99.90;;;;;;5032093;28;20076;-82
2021/08/13 02:09:15;;;;;;;8.32;4.00;;;18.00;99.90;;;;;;5031427;28;20033;-78
2021/08/13 02:11:43;;;;;;;13.73;3.70;;;18.00;99.90;;;;;;5031533;28;20029;-78
2021/08/13 02:14:09;;;;;;;7.72;3.55;;;18.00;99.90;;;;;;5033363;28;20095;-78
2021/08/13 02:16:36;;;;;;;8.70;3.80;;;18.00;99.90;;;;;;5032982;28;20484;-81
2021/08/13 02:19:37;;;;;;;10.32;4.30;;;18.00;99.90;;;;;;5032941;28;20109;-78
2021/08/13 02:22:03;;;;;;;9.88;4.30;;;18.00;99.90;;;;;;5031591;28;20029;-78
2021/08/13 02:24:29;;;;;;;9.45;4.38;;;18.00;99.90;;;;;;5032807;28;20499;-78
2021/08/13 02:26:55;;;;;;;12.18;4.43;;;18.10;99.90;;;;;;5032757;28;20102;-78
2021/08/13 02:29:21;;;;;;;9.38;4.32;;;18.10;99.90;;;;;;5014731;28;20489;-78
2021/08/13 02:31:48;;;;;;;10.30;4.40;;;18.10;99.90;;;;;;5012655;28;20116;-78
2021/08/13 02:34:14;;;;;;;16.20;4.78;;;18.10;99.90;;;;;;5012890;28;20042;-81
2021/08/13 02:37:09;;;;;;;9.07;3.90;;;18.10;99.90;;;;;;5027332;28;20687;-78
2021/08/13 02:39:58;;;;;;;9.38;4.05;;;18.10;99.90;;;;;;5030332;28;20085;-78
2021/08/13 02:42:37;;;;;;;11.80;4.40;;;18.00;99.90;;;;;;5032303;28;20038;-78
2021/08/13 02:45:04;;;;;;;12.55;4.32;;;18.00;99.90;;;;;;5032603;28;20053;-78
2021/08/13 02:47:30;;;;;;;12.75;4.30;;;18.00;99.90;;;;;;5030755;28;20057;-78
2021/08/13 02:50:06;;;;;;;6.30;4.25;;;17.90;99.90;;;;;;5030778;28;20025;-78
2021/08/13 02:52:48;;;;;;;10.15;4.80;;;17.90;99.90;;;;;;5031296;28;20071;-82
2021/08/13 02:55:23;;;;;;;11.18;4.55;;;17.90;99.90;;;;;;5029751;28;20029;-78
2021/08/13 02:57:52;;;;;;;14.63;4.78;;;17.90;99.90;;;;;;5032233;28;20028;-78
2021/08/13 03:00:19;;;;;;;16.00;5.05;;;17.90;99.90;;;;;;5031218;28;20113;-78
2021/08/13 03:02:50;;;;;;;14.50;4.47;;;17.80;99.90;;;;;;5032289;28;20032;-78
2021/08/13 03:05:21;;;;;;;10.93;4.65;;;17.80;99.90;;;;;;5031921;28;20075;-81
2021/08/13 03:07:47;;;;;;;8.88;4.32;;;17.80;99.90;;;;;;5030382;28;20041;-81
2021/08/13 03:10:14;;;;;;;10.73;4.57;;;17.80;99.90;;;;;;5030710;28;20128;-78
2021/08/13 03:12:40;;;;;;;15.27;4.82;;;17.70;99.90;;;;;;5030922;28;20035;-82
2021/08/13 03:15:06;;;;;;;12.95;4.25;;;17.70;99.90;;;;;;5031847;28;20036;-78
2021/08/13 03:17:33;;;;;;;13.98;5.47;;;17.70;99.90;;;;;;5029492;28;20033;-78
2021/08/13 03:20:00;;;;;;;15.57;4.88;;;17.70;99.90;;;;;;5030500;28;20030;-78
2021/08/13 03:22:27;;;;;;;10.65;4.45;;;17.70;99.90;;;;;;5030712;28;20445;-78
2021/08/13 03:24:53;;;;;;;20.77;5.55;;;17.70;99.90;;;;;;5030386;28;20829;-81
2021/08/13 03:27:19;;;;;;;8.90;4.50;;;17.70;99.90;;;;;;5032118;28;20033;-81
2021/08/13 03:29:46;;;;;;;10.65;5.13;;;17.70;99.90;;;;;;5012058;28;20105;-78
2021/08/13 03:32:11;;;;;;;13.35;4.90;;;17.70;99.90;;;;;;5010723;28;20026;-78
2021/08/13 03:34:37;;;;;;;18.98;5.03;;;17.70;99.90;;;;;;5011813;28;20515;-80
2021/08/13 03:37:03;;;;;;;13.60;5.07;;;17.70;99.90;;;;;;5011697;28;20034;-78
2021/08/13 03:39:29;;;;;;;19.63;5.53;;;17.70;99.90;;;;;;5010304;28;20105;-77
2021/08/13 03:41:55;;;;;;;15.77;5.30;;;17.70;99.90;;;;;;5010317;28;20121;-81
2021/08/13 03:44:21;;;;;;;14.65;5.20;;;17.70;99.90;;;;;;5011952;28;20583;-79
2021/08/13 03:46:47;;;;;;;17.75;5.60;;;17.70;99.90;;;;;;5031507;28;20033;-81
2021/08/13 03:49:12;;;;;;;15.68;5.30;;;17.70;99.90;;;;;;5030775;28;20038;-81
2021/08/13 03:51:38;;;;;;;12.82;5.43;;;17.70;99.90;;;;;;5020943;28;20028;-78
2021/08/13 03:54:08;;;;;;;13.40;5.40;;;17.70;99.90;;;;;;5029258;28;20028;-81
2021/08/13 03:56:33;;;;;;;15.45;5.50;;;17.70;99.90;;;;;;5030425;28;20033;-78
2021/08/13 03:59:00;;;;;;;15.93;5.60;;;17.70;99.90;;;;;;5030116;28;20392;-78
2021/08/13 04:01:26;;;;;;;16.08;5.50;;;17.60;99.90;;;;;;5031200;28;20033;-78
2021/08/13 04:03:51;;;;;;;16.08;5.72;;;17.60;99.90;;;;;;5029544;28;20025;-78
2021/08/13 04:06:17;;;;;;;10.73;5.75;;;17.60;99.90;;;;;;5031070;28;20093;-78
2021/08/13 04:08:43;;;;;;;18.33;6.28;;;17.60;99.90;;;;;;5029449;28;20025;-82
2021/08/13 04:11:09;;;;;;;18.98;6.03;;;17.60;99.90;;;;;;5029617;28;20032;-79
2021/08/13 04:13:34;;;;;;;17.30;6.15;;;17.60;99.90;;;;;;5030650;28;20030;-78
2021/08/13 04:16:00;;;;;;;11.43;5.97;;;17.50;99.90;;;;;;5030368;28;20108;-78
2021/08/13 04:18:26;;;;;;;12.77;5.90;;;17.50;99.90;;;;;;5029536;28;20026;-81
2021/08/13 04:20:52;;;;;;;21.20;6.68;;;17.50;99.90;;;;;;5027931;28;20052;-78
2021/08/13 04:23:17;;;;;;;17.98;6.65;;;17.50;99.90;;;;;;5030539;28;20029;-78
2021/08/13 04:25:43;;;;;;;12.02;6.32;;;17.50;99.90;;;;;;5029339;28;20029;-81
2021/08/13 04:28:09;;;;;;;16.48;6.50;;;17.50;99.90;;;;;;5030777;28;20396;-79
2021/08/13 04:30:35;;;;;;;18.27;6.93;;;17.50;99.90;;;;;;5030487;28;20025;-78
2021/08/13 04:33:07;;;;;;;18.05;7.10;;;17.40;99.90;;;;;;5030581;28;20034;-78
2021/08/13 04:35:32;;;;;;;14.93;6.43;;;17.40;99.90;;;;;;5030659;28;20503;-78
2021/08/13 04:37:58;;;;;;;12.27;6.80;;;17.40;99.90;;;;;;5030981;28;20030;-78
2021/08/13 04:40:24;;;;;;;14.25;8.02;;;17.40;99.90;;;;;;5029637;28;20463;-78
2021/08/13 04:42:49;;;;;;;17.67;7.72;;;17.30;99.90;;;;;;5030753;28;20034;-78
2021/08/13 04:45:15;;;;;;;16.08;8.25;;;17.30;99.90;;;;;;5028634;28;20053;-81
2021/08/13 04:47:41;;;;;;;16.38;8.77;;;17.30;99.90;;;;;;5030727;28;20040;-78
2021/08/13 04:50:08;;;;;;;20.95;9.38;;;17.30;99.90;;;;;;5022364;28;20026;-81
2021/08/13 04:52:44;;;;;;;15.63;8.02;;;17.30;99.90;;;;;;5027807;28;20400;-78
2021/08/13 04:55:11;;;;;;;14.65;7.32;;;17.30;99.90;;;;;;5027880;28;20527;-78
2021/08/13 04:57:37;;;;;;;16.08;7.30;;;17.30;99.90;;;;;;5030428;28;20028;-78
2021/08/13 05:00:04;;;;;;;22.77;7.35;;;17.30;99.90;;;;;;5030500;28;20400;-82
2021/08/13 05:02:30;;;;;;;16.15;8.00;;;17.30;99.90;;;;;;5029293;28;20564;-78
2021/08/13 05:05:00;;;;;;;15.88;8.57;;;17.30;99.90;;;;;;5030105;28;20116;-81
2021/08/13 05:07:28;;;;;;;16.38;8.18;;;17.30;99.90;;;;;;5030478;28;20036;-78
2021/08/13 05:09:53;;;;;;;18.77;8.23;;;17.30;99.90;;;;;;5030366;28;20397;-78
2021/08/13 05:12:19;;;;;;;15.45;7.80;;;17.30;99.90;;;;;;5034324;28;20035;-78
2021/08/13 05:14:45;;;;;;;18.20;7.85;;;17.30;99.90;;;;;;5033947;28;20436;-82
2021/08/13 05:17:10;;;;;;;17.73;8.43;;;17.30;99.90;;;;;;5032444;28;20026;-81
2021/08/13 05:19:39;;;;;;;12.65;8.93;;;17.30;99.90;;;;;;5034218;28;20105;-78
2021/08/13 05:22:04;;;;;;;19.95;8.88;;;17.30;99.90;;;;;;5031400;28;20105;-81
2021/08/13 05:24:30;;;;;;;16.08;9.00;;;17.30;99.90;;;;;;5032734;28;20124;-82
2021/08/13 05:26:55;;;;;;;14.50;8.20;;;17.30;99.90;;;;;;5032850;28;20029;-78
2021/08/13 05:29:21;;;;;;;17.13;8.77;;;17.30;99.90;;;;;;5032442;28;20044;-78
2021/08/13 05:31:47;;;;;;;15.70;8.93;;;17.30;99.90;;;;;;5033832;28;20026;-81
2021/08/13 05:34:12;;;;;;;19.25;9.40;;;17.40;99.90;;;;;;5033668;28;20060;-78
2021/08/13 05:36:38;;;;;;;21.27;9.32;;;17.40;99.90;;;;;;5033121;28;20041;-78
2021/08/13 05:39:04;;;;;;;18.23;9.40;;;17.30;99.90;;;;;;5033781;28;20033;-78
2021/08/13 05:41:30;;;;;;;15.18;9.40;;;17.40;99.90;;;;;;5033569;28;20185;-78
2021/08/13 05:43:55;;;;;;;21.17;10.73;;;17.40;99.90;;;;;;5032197;28;20053;-81
2021/08/13 05:46:21;;;;;;;18.42;10.07;;;17.40;99.90;;;;;;5033253;28;20029;-77
2021/08/13 05:48:47;;;;;;;15.23;9.85;;;17.40;99.90;;;;;;5033824;28;20029;-81
2021/08/13 05:51:12;;;;;;;17.08;9.75;;;17.40;99.90;;;;;;5030913;28;20029;-81
2021/08/13 05:53:38;;;;;;;15.15;9.52;;;17.40;99.90;;;;;;5032783;28;20033;-78
2021/08/13 05:56:04;;;;;;;20.50;9.80;;;17.40;99.90;;;;;;5031993;28;20071;-78
2021/08/13 05:58:32;;;;;;;14.13;9.70;;;17.50;99.90;;;;;;5032013;28;20033;-78
2021/08/13 06:00:58;;;;;;;17.80;9.48;;;17.50;99.90;;;;;;5033358;28;20029;-81
2021/08/13 06:03:24;;;;;;;16.00;9.30;;;17.50;99.90;;;;;;5030793;28;20075;-78
2021/08/13 06:05:49;;;;;;;14.88;9.40;;;17.50;99.90;;;;;;5022295;28;20030;-80
2021/08/13 06:08:15;;;;;;;13.40;9.20;;;17.50;99.90;;;;;;5028579;28;20041;-81
2021/08/13 06:10:41;;;;;;;16.33;9.02;;;17.50;99.90;;;;;;5031267;28;20492;-79
2021/08/13 06:13:06;;;;;;;15.75;9.18;;;17.60;99.90;;;;;;5032702;28;20029;-79
2021/08/13 06:15:32;;;;;;;15.93;10.77;;;17.60;99.90;;;;;;5025284;28;20030;-81
2021/08/13 06:17:57;;;;;;;15.15;9.10;;;17.60;99.90;;;;;;5025547;28;20469;-80
2021/08/13 06:20:25;;;;;;;15.70;9.30;;;17.70;99.90;;;;;;5021704;28;20068;-82
2021/08/13 06:22:51;;;;;;;16.08;9.95;;;17.70;99.90;;;;;;5021727;28;20060;-81
2021/08/13 06:25:16;;;;;;;13.25;8.85;;;17.80;99.90;;;;;;5031959;28;20061;-82
2021/08/13 06:27:44;;;;;;;16.92;9.13;;;17.90;99.90;;;;;;5027058;28;20029;-82
2021/08/13 06:30:13;;;;;;;13.75;8.10;;;17.90;99.90;;;;;;5030102;28;20037;-81
2021/08/13 06:32:39;;;;;;;15.23;8.77;;;18.00;99.90;;;;;;5030736;28;20122;-81
2021/08/13 06:35:09;;;;;;;11.68;8.27;;;18.10;99.90;;;;;;5027617;28;20464;-82
2021/08/13 06:37:46;;;;;;;10.40;8.02;;;18.10;99.90;;;;;;5030671;28;20030;-81
2021/08/13 06:40:12;;;;;;;12.27;7.85;;;18.20;99.90;;;;;;5031838;28;20384;-81
2021/08/13 06:42:38;;;;;;;12.25;7.40;;;18.30;99.90;;;;;;5030260;28;20422;-81
2021/08/13 06:45:05;;;;;;;17.48;7.50;;;18.40;99.90;;;;;;5031230;28;20120;-81
2021/08/13 06:47:31;;;;;;;10.93;8.40;;;18.50;99.90;;;;;;5030853;28;20061;-82
2021/08/13 06:49:58;;;;;;;10.65;8.40;;;18.50;99.90;;;;;;5023309;28;20492;-82
2021/08/13 06:52:23;;;;;;;12.13;6.85;;;18.60;99.90;;;;;;5026473;28;20550;-82
2021/08/13 06:54:49;;;;;;;10.52;7.13;;;18.70;99.90;;;;;;5030868;28;20026;-81
2021/08/13 06:57:15;;;;;;;16.23;7.63;;;18.70;99.90;;;;;;5027577;28;20091;-81
2021/08/13 06:59:40;;;;;;;10.38;7.35;;;18.80;99.90;;;;;;5029465;28;20556;-81
2021/08/13 07:02:06;;;;;;;12.18;8.23;;;18.90;99.90;;;;;;5032118;28;20033;-81
2021/08/13 07:04:32;;;;;;;10.73;7.18;;;19.00;99.90;;;;;;5025470;28;20048;-81
2021/08/13 07:06:57;;;;;;;9.35;6.90;;;19.00;99.90;;;;;;5020347;28;20032;-82
2021/08/13 07:09:23;;;;;;;13.18;6.57;;;19.10;99.90;;;;;;5030427;28;20083;-78
2021/08/13 07:11:49;;;;;;;8.23;6.03;;;19.10;99.90;;;;;;5025188;28;20121;-78
2021/08/13 07:14:14;;;;;;;8.75;6.20;;;19.10;99.90;;;;;;5028133;28;20025;-83
2021/08/13 07:16:40;;;;;;;8.93;6.10;;;19.20;99.90;;;;;;5028506;28;22110;-80
2021/08/13 07:19:06;;;;;;;10.93;6.40;;;19.30;99.90;;;;;;5028699;28;20029;-79
2021/08/13 07:21:31;;;;;;;8.68;5.82;;;19.30;99.90;;;;;;5028692;28;20127;-78
2021/08/13 07:23:57;;;;;;;11.88;6.15;;;19.40;99.90;;;;;;5029827;28;20075;-81
2021/08/13 07:26:23;;;;;;;8.80;6.07;;;19.50;99.90;;;;;;5030667;28;20025;-78
2021/08/13 07:28:48;;;;;;;8.85;5.70;;;19.60;99.90;;;;;;5029967;28;20025;-82
2021/08/13 07:31:14;;;;;;;11.38;6.13;;;19.60;99.90;;;;;;5027104;28;20064;-80
2021/08/13 07:33:40;;;;;;;12.32;6.78;;;19.80;99.90;;;;;;5029432;28;20086;-84
2021/08/13 07:36:06;;;;;;;7.03;5.70;;;19.90;99.90;;;;;;5027445;28;20030;-80
2021/08/13 07:38:35;;;;;;;8.27;6.45;;;19.90;99.90;;;;;;5029847;28;20090;-79
2021/08/13 07:41:01;;;;;;;8.57;6.00;;;20.10;99.90;;;;;;5029495;28;20026;-81
2021/08/13 07:43:26;;;;;;;9.65;6.50;;;20.20;99.90;;;;;;5030209;28;20052;-81
2021/08/13 07:45:52;;;;;;;9.13;5.82;;;20.20;99.90;;;;;;5028037;28;20132;-82
2021/08/13 07:48:18;;;;;;;12.75;5.95;;;20.50;99.90;;;;;;5030534;28;20094;-79
2021/08/13 07:50:43;;;;;;;8.25;6.20;;;20.50;99.90;;;;;;5018809;28;20045;-81
2021/08/13 07:53:09;;;;;;;7.22;5.30;;;20.60;99.90;;;;;;5028284;28;20028;-81
2021/08/13 07:55:35;;;;;;;8.98;5.30;;;20.80;99.90;;;;;;5029124;28;20030;-82
2021/08/13 07:58:00;;;;;;;10.32;6.05;;;21.00;99.90;;;;;;5028004;28;20034;-78
2021/08/13 08:00:26;;;;;;;7.95;5.40;;;21.80;99.90;;;;;;5029636;28;20221;-78
2021/08/13 08:02:52;;;;;;;6.60;5.38;;;24.40;99.90;;;;;;5028104;28;20112;-78
2021/08/13 08:05:18;;;;;;;7.63;5.18;;;26.40;99.90;;;;;;5029345;28;20139;-81
2021/08/13 08:07:43;;;;;;;6.75;5.68;;;27.50;99.40;;;;;;5029477;28;20041;-82
2021/08/13 08:10:10;;;;;;;7.93;5.45;;;28.40;97.70;;;;;;5026780;28;20025;-82
2021/08/13 08:12:35;;;;;;;7.15;5.03;;;29.00;96.20;;;;;;5026619;28;20029;-82
2021/08/13 08:15:01;;;;;;;5.65;5.05;;;30.50;94.60;;;;;;5029269;28;20040;-80
2021/08/13 08:17:27;;;;;;;11.05;5.18;;;31.40;92.90;;;;;;5027917;28;20607;-83
2021/08/13 08:19:52;;;;;;;7.63;5.30;;;31.70;91.80;;;;;;5023767;28;20026;-82
2021/08/13 08:22:18;;;;;;;6.50;5.28;;;32.10;90.70;;;;;;5024736;28;20056;-82
2021/08/13 08:24:44;;;;;;;7.35;5.25;;;32.00;89.70;;;;;;5028057;28;20087;-82
2021/08/13 08:27:10;;;;;;;6.75;5.40;;;32.10;90.10;;;;;;5029911;28;20830;-81
2021/08/13 08:29:35;;;;;;;10.45;5.78;;;32.80;88.80;;;;;;5027563;28;20850;-83
2021/08/13 08:32:01;;;;;;;6.65;5.20;;;33.40;86.30;;;;;;5030044;28;20500;-80
2021/08/13 08:34:26;;;;;;;6.30;5.68;;;33.10;87.20;;;;;;5028990;28;20475;-80
2021/08/13 08:36:52;;;;;;;7.95;6.35;;;33.50;85.30;;;;;;5021124;28;20025;-82
2021/08/13 08:39:18;;;;;;;11.00;6.40;;;34.00;83.60;;;;;;5015092;28;20128;-82
2021/08/13 08:41:44;;;;;;;7.30;5.85;;;33.20;85.60;;;;;;5018028;28;20036;-81
2021/08/13 08:44:10;;;;;;;9.20;5.80;;;33.80;83.40;;;;;;5027806;28;20068;-82
2021/08/13 08:46:38;;;;;;;13.18;6.88;;;33.50;84.30;;;;;;5024263;28;20061;-81
2021/08/13 08:49:04;;;;;;;8.90;6.25;;;33.40;83.60;;;;;;5025495;28;20025;-81
2021/08/13 08:51:30;;;;;;;7.07;6.38;;;33.70;83.60;;;;;;5025186;28;20112;-78
2021/08/13 08:53:57;;;;;;;6.88;6.28;;;33.90;82.70;;;;;;5032059;28;20029;-79
2021/08/13 08:56:25;;;;;;;6.57;5.88;;;33.50;83.50;;;;;;5030766;28;20058;-80
2021/08/13 08:58:54;;;;;;;8.77;6.15;;;33.80;84.10;;;;;;5029318;28;20045;-81
2021/08/13 09:01:19;;;;;;;11.60;6.72;;;34.50;82.50;;;;;;5028711;28;20053;-82
2021/08/13 09:03:46;;;;;;;7.75;6.75;;;34.40;82.70;;;;;;5018127;28;20065;-81
2021/08/13 09:06:14;;;;;;;7.80;6.50;;;34.10;81.40;;;;;;5024162;28;20033;-83
2021/08/13 09:08:40;;;;;;;10.77;6.30;;;35.20;80.20;;;;;;5033139;28;20079;-82
2021/08/13 09:11:08;;;;;;;9.48;6.40;;;35.50;78.20;;;;;;5026611;28;20037;-82
2021/08/13 09:13:35;;;;;;;10.52;6.05;;;35.10;77.60;;;;;;5033134;28;20520;-80
2021/08/13 09:16:16;;;;;;;8.13;6.47;;;34.80;78.50;;;;;;5028520;28;20052;-80
2021/08/13 09:18:43;;;;;;;10.82;6.50;;;34.90;79.40;;;;;;5032235;28;20029;-82
2021/08/13 09:21:08;;;;;;;7.22;6.53;;;35.30;77.30;;;;;;5024585;28;20037;-80
2021/08/13 09:23:42;;;;;;;10.98;6.10;;;35.20;77.60;;;;;;5025185;28;20389;-82
2021/08/13 09:26:18;;;;;;;8.25;6.95;;;35.30;78.50;;;;;;5025577;28;20393;-82
2021/08/13 09:28:58;;;;;;;9.70;6.28;;;34.70;77.50;;;;;;5017791;28;20429;-81
2021/08/13 09:31:29;;;;;;;6.68;6.13;;;34.80;77.90;;;;;;5032262;28;20511;-80
2021/08/13 09:34:13;;;;;;;11.80;6.37;;;34.90;77.90;;;;;;5031937;28;20025;-82
2021/08/13 09:36:55;;;;;;;8.93;7.00;;;35.20;79.00;;;;;;5015541;28;20018;-82
2021/08/13 09:39:32;;;;;;;13.38;6.90;;;34.80;77.60;;;;;;5028669;28;20496;-83
2021/08/13 09:42:07;;;;;;;8.18;6.25;;;35.20;78.90;;;;;;5027068;28;20033;-81
2021/08/13 09:44:35;;;;;;;11.15;6.28;;;34.50;77.30;;;;;;5030772;28;20136;-82
2021/08/13 09:47:05;;;;;;;9.40;7.10;;;34.70;77.70;;;;;;5030824;28;20033;-82
2021/08/13 09:49:33;;;;;;;8.85;7.22;;;35.00;77.10;;;;;;5031532;28;20029;-80
2021/08/13 09:52:17;;;;;;;9.70;7.90;;;34.60;77.70;;;;;;5028393;28;20124;-82
2021/08/13 09:54:44;;;;;;;7.40;6.80;;;35.30;77.00;;;;;;5016958;28;20029;-82
2021/08/13 09:57:12;;;;;;;10.10;7.22;;;35.20;76.50;;;;;;5021890;28;20135;-82
2021/08/13 09:59:38;;;;;;;7.75;6.97;;;35.30;76.40;;;;;;5027109;28;20140;-81
2021/08/13 10:02:12;;;;;;;7.28;6.68;;;35.40;75.90;;;;;;5027965;28;20568;-82
2021/08/13 10:04:38;;;;;;;7.55;6.80;;;35.50;76.00;;;;;;5030272;28;20369;-82
2021/08/13 10:07:05;;;;;;;7.80;6.97;;;35.50;75.90;;;;;;5028082;28;20143;-81
2021/08/13 10:09:31;;;;;;;7.70;7.00;;;35.80;75.10;;;;;;5029910;28;20036;-83
2021/08/13 10:12:04;;;;;;;9.02;6.68;;;35.80;75.20;;;;;;5022813;28;20034;-82
2021/08/13 10:14:40;;;;;;;7.47;6.38;;;35.60;76.80;;;;;;5028317;28;20032;-84
2021/08/13 10:17:25;;;;;;;8.35;7.00;;;35.80;75.50;;;;;;5029834;28;20022;-82
2021/08/13 10:19:51;;;;;;;8.20;6.25;;;35.60;75.10;;;;;;5032105;28;20844;-83
2021/08/13 10:22:21;;;;;;;6.70;5.78;;;35.90;75.20;;;;;;5028988;28;20036;-82
2021/08/13 10:24:47;;;;;;;6.97;6.28;;;35.80;77.60;;;;;;5014883;28;20084;-82
2021/08/13 10:27:15;;;;;;;7.25;6.55;;;36.20;74.70;;;;;;5031183;28;20029;-82
2021/08/13 10:29:44;;;;;;;11.55;6.97;;;35.60;74.90;;;;;;5030884;28;20416;-83
2021/08/13 10:32:10;;;;;;;7.45;6.40;;;35.30;75.40;;;;;;5030383;28;20029;-82
2021/08/13 10:34:35;;;;;;;7.90;6.05;;;35.00;75.60;;;;;;5032357;28;20029;-83
2021/08/13 10:37:12;;;;;;;12.90;5.85;;;34.00;78.80;;;;;;5023632;28;20033;-82
2021/08/13 10:39:41;;;;;;;10.43;6.07;;;35.00;76.90;;;;;;5028929;28;20500;-83
2021/08/13 10:42:08;;;;;;;8.35;6.20;;;35.20;76.50;;;;;;5029182;28;20029;-83
2021/08/13 10:44:43;;;;;;;7.70;6.30;;;35.60;76.30;;;;;;5029530;28;20504;-81
2021/08/13 10:47:14;;;;;;;7.47;6.70;;;35.30;75.10;;;;;;5031196;28;20566;-82
2021/08/13 10:49:45;;;;;;;8.57;6.10;;;35.10;75.40;;;;;;5030841;28;20860;-82
2021/08/13 10:52:11;;;;;;;8.13;6.53;;;35.20;75.20;;;;;;5019927;28;20116;-82
2021/08/13 10:54:48;;;;;;;10.18;6.32;;;35.50;75.20;;;;;;5026355;28;20123;-83
2021/08/13 10:57:14;;;;;;;9.85;6.35;;;35.30;75.20;;;;;;5024143;28;20153;-83
2021/08/13 10:59:43;;;;;;;7.28;6.57;;;35.90;76.70;;;;;;5016092;28;20504;-83
2021/08/13 11:02:17;;;;;;;6.82;6.10;;;35.80;75.10;;;;;;5026094;28;20026;-82
2021/08/13 11:04:45;;;;;;;9.10;5.68;;;35.70;75.20;;;;;;5010768;28;20026;-82
2021/08/13 11:07:11;;;;;;;7.15;6.40;;;35.70;77.20;;;;;;5018634;28;20029;-81
2021/08/13 11:09:39;;;;;;;13.35;6.60;;;35.70;74.40;;;;;;5026432;28;20507;-82
2021/08/13 11:12:05;;;;;;;11.15;6.72;;;35.60;74.30;;;;;;5024521;28;20529;-83
2021/08/13 11:14:34;;;;;;;6.60;5.90;;;35.30;75.00;;;;;;5025270;28;20053;-84
2021/08/13 11:17:01;;;;;;;11.73;6.63;;;35.40;76.30;;;;;;5020316;28;20468;-84
2021/08/13 11:19:28;;;;;;;7.38;5.95;;;34.80;75.60;;;;;;5030905;28;20043;-82
2021/08/13 11:21:56;;;;;;;7.40;5.97;;;34.40;76.40;;;;;;5021054;28;20468;-82
2021/08/13 11:24:26;;;;;;;8.57;6.25;;;35.10;76.60;;;;;;5022706;28;20045;-83
2021/08/13 11:26:58;;;;;;;8.53;6.07;;;34.50;76.00;;;;;;5030328;28;20463;-83
2021/08/13 11:29:30;;;;;;;9.50;5.80;;;34.40;76.20;;;;;;5019451;28;20061;-83
2021/08/13 11:31:56;;;;;;;;;;;34.70;76.10;;;;;;5015551;28;20034;-83
2021/08/13 11:35:01;;;;;;;6.75;6.05;;;34.70;75.90;;;;;;5029938;28;19920;-83
2021/08/13 11:37:29;;;;;;;9.98;6.05;;;34.30;75.80;;;;;;5016971;28;20446;-83
2021/08/13 11:40:06;;;;;;;7.72;5.82;;;34.00;77.20;;;;;;5023530;28;20026;-82
2021/08/13 11:42:34;;;;;;;6.57;5.93;;;33.80;78.30;;;;;;5018409;28;20037;-82
2021/08/13 11:45:02;;;;;;;7.80;6.25;;;33.70;78.70;;;;;;5026682;28;20594;-83
2021/08/13 11:47:28;;;;;;;9.82;5.72;;;33.60;77.60;;;;;;5030000;28;20038;-82
2021/08/13 11:49:55;;;;;;;10.68;5.65;;;33.80;77.50;;;;;;5026092;28;20029;-83
2021/08/13 11:52:22;;;;;;;7.80;5.72;;;33.90;78.20;;;;;;5028698;28;20212;-83
2021/08/13 11:54:49;;;;;;;6.25;5.38;;;33.60;77.90;;;;;;5029354;28;20022;-82
2021/08/13 11:57:15;;;;;;;8.25;5.95;;;32.90;79.60;;;;;;5025355;28;20460;-81
2021/08/13 11:59:41;;;;;;;11.85;5.47;;;31.50;82.80;;;;;;5020568;28;20036;-82
2021/08/13 12:02:08;;;;;;;8.10;5.72;;;31.30;85.40;;;;;;5026988;28;20025;-82
2021/08/13 12:04:33;;;;;;;6.88;5.47;;;31.80;83.00;;;;;;5020344;28;20510;-80
2021/08/13 12:06:59;;;;;;;7.90;5.60;;;31.60;82.50;;;;;;5023034;28;20112;-81
2021/08/13 12:09:38;;;;;;;6.40;5.80;;;31.70;84.80;;;;;;5027294;28;20032;-81
2021/08/13 12:12:13;;;;;;;11.73;5.75;;;31.50;81.90;;;;;;5023237;28;20052;-81
2021/08/13 12:14:50;;;;;;;8.10;5.30;;;31.70;83.60;;;;;;5027681;28;20883;-79
2021/08/13 12:17:16;;;;;;;7.00;5.78;;;31.70;82.90;;;;;;5012764;28;20025;-81
2021/08/13 12:19:42;;;;;;;12.07;5.35;;;31.50;83.40;;;;;;5020613;28;20030;-81
2021/08/13 12:22:08;;;;;;;6.90;5.05;;;31.50;86.40;;;;;;5021856;28;20144;-79
2021/08/13 12:24:39;;;;;;;11.52;5.22;;;31.30;83.70;;;;;;5028185;28;20017;-80
2021/08/13 12:27:09;;;;;;;9.90;4.70;;;31.50;84.00;;;;;;5029474;28;20026;-82
2021/08/13 12:29:37;;;;;;;7.70;5.63;;;31.60;84.40;;;;;;5012106;28;20203;-81
2021/08/13 12:32:05;;;;;;;14.40;5.30;;;31.60;83.10;;;;;;5026704;28;20112;-82
2021/08/13 12:34:36;;;;;;;7.68;5.00;;;31.30;84.10;;;;;;5021049;28;20476;-82
2021/08/13 12:37:10;;;;;;;10.13;5.80;;;31.40;86.40;;;;;;5028632;28;20104;-82
2021/08/13 12:39:46;;;;;;;6.72;4.78;;;31.00;85.60;;;;;;5022615;28;20492;-83
2021/08/13 12:42:14;;;;;;;9.65;5.25;;;30.90;85.80;;;;;;5022372;28;20060;-83
2021/08/13 12:44:41;;;;;;;9.80;5.18;;;30.60;86.40;;;;;;5023172;28;20042;-79
2021/08/13 12:47:08;;;;;;;10.15;5.00;;;30.20;87.40;;;;;;5029122;28;20098;-83